createdAt,value
2023-08-26T00:02:42.000Z,15.68
2023-08-26T00:07:43.000Z,15.59
2023-08-26T00:12:43.000Z,15.88
2023-08-26T00:17:43.000Z,15.69
2023-08-26T00:22:43.000Z,15.69
2023-08-26T00:27:42.000Z,15.9
2023-08-26T00:32:42.000Z,15.94
2023-08-26T00:37:42.000Z,15.87
2023-08-26T00:42:43.000Z,15.42
2023-08-26T00:47:42.000Z,15.76
2023-08-26T00:52:43.000Z,15.71
2023-08-26T00:57:43.000Z,15.85
2023-08-26T01:02:42.000Z,15.61
2023-08-26T01:07:43.000Z,15.78
2023-08-26T01:12:42.000Z,15.94
2023-08-26T01:17:42.000Z,15.71
2023-08-26T01:22:42.000Z,15.65
2023-08-26T01:27:42.000Z,15.48
2023-08-26T01:32:42.000Z,15.62
2023-08-26T01:37:42.000Z,15.72
2023-08-26T01:42:42.000Z,15.72
2023-08-26T01:47:42.000Z,15.9
2023-08-26T01:52:43.000Z,16.36
2023-08-26T01:57:42.000Z,16.47
2023-08-26T02:02:42.000Z,17.05
2023-08-26T02:07:42.000Z,17.57
2023-08-26T02:12:42.000Z,17.66
2023-08-26T02:17:42.000Z,17.61
2023-08-26T02:22:42.000Z,17.06
2023-08-26T02:27:42.000Z,16.85
2023-08-26T02:32:43.000Z,16.48
2023-08-26T02:37:43.000Z,16.38
2023-08-26T02:42:42.000Z,16.6
2023-08-26T02:47:42.000Z,16.52
2023-08-26T02:52:43.000Z,16.66
2023-08-26T02:57:43.000Z,16.97
2023-08-26T03:02:42.000Z,17.12
2023-08-26T03:07:42.000Z,17.52
2023-08-26T03:12:43.000Z,18.07
2023-08-26T03:17:42.000Z,17.95
2023-08-26T03:22:42.000Z,18.06
2023-08-26T03:27:42.000Z,17.78
2023-08-26T03:32:43.000Z,17.6
2023-08-26T03:37:42.000Z,17.4
2023-08-26T03:42:42.000Z,17.67
2023-08-26T03:47:41.000Z,17.98
2023-08-26T03:52:42.000Z,17.59
2023-08-26T03:57:42.000Z,18.2
2023-08-26T04:02:42.000Z,18.04
2023-08-26T04:07:42.000Z,18
2023-08-26T04:12:42.000Z,17.85
2023-08-26T04:17:42.000Z,19.6
2023-08-26T04:22:42.000Z,22.37
2023-08-26T04:27:42.000Z,25.53
2023-08-26T04:32:42.000Z,26.6
2023-08-26T04:37:42.000Z,25.02
2023-08-26T04:42:43.000Z,26.6
2023-08-26T04:47:42.000Z,34.31
2023-08-26T04:52:43.000Z,33.41
2023-08-26T04:57:43.000Z,27.25
2023-08-26T05:02:42.000Z,28.24
2023-08-26T05:07:42.000Z,27.81
2023-08-26T05:12:42.000Z,27.49
2023-08-26T05:17:43.000Z,25.65
2023-08-26T05:22:43.000Z,22.34
2023-08-26T05:27:42.000Z,20.52
2023-08-26T05:32:42.000Z,20.1
2023-08-26T05:37:42.000Z,19.26
2023-08-26T05:42:43.000Z,18.42
2023-08-26T05:47:43.000Z,18.47
2023-08-26T05:52:43.000Z,19.8
2023-08-26T05:57:42.000Z,21.53
2023-08-26T06:02:42.000Z,21.23
2023-08-26T06:07:43.000Z,19.69
2023-08-26T06:12:42.000Z,16.92
2023-08-26T06:17:42.000Z,15.17
2023-08-26T06:22:42.000Z,14.03
2023-08-26T06:32:43.000Z,11.96
2023-08-26T06:37:42.000Z,10.91
2023-08-26T06:42:43.000Z,10.54
2023-08-26T06:47:42.000Z,10.58
2023-08-26T06:52:42.000Z,10.47
2023-08-26T06:57:42.000Z,11.18
2023-08-26T07:02:42.000Z,11.35
2023-08-26T07:07:42.000Z,11.28
2023-08-26T07:12:43.000Z,10.75
2023-08-26T07:17:42.000Z,10.18
2023-08-26T07:22:42.000Z,9
2023-08-26T07:27:42.000Z,8.13
2023-08-26T07:32:42.000Z,7.8
2023-08-26T07:37:42.000Z,7.57
2023-08-26T07:42:42.000Z,6.91
2023-08-26T07:52:42.000Z,6.22
2023-08-26T07:57:43.000Z,6.24
2023-08-26T08:02:42.000Z,6.14
2023-08-26T08:07:42.000Z,6.23
2023-08-26T08:12:43.000Z,5.82
2023-08-26T08:17:42.000Z,5.72
2023-08-26T08:22:42.000Z,5.61
2023-08-26T08:27:43.000Z,5.46
2023-08-26T08:32:42.000Z,4.7
2023-08-26T08:37:42.000Z,4.36
2023-08-26T08:42:42.000Z,5.18
2023-08-26T08:47:42.000Z,5.21
2023-08-26T08:52:42.000Z,4.9
2023-08-26T08:57:42.000Z,4.23
2023-08-26T09:02:42.000Z,4.16
2023-08-26T09:07:42.000Z,4.31
2023-08-26T09:12:42.000Z,4.36
2023-08-26T09:17:42.000Z,4.68
2023-08-26T09:22:42.000Z,4.53
2023-08-26T09:27:42.000Z,4.48
2023-08-26T09:32:42.000Z,4.52
2023-08-26T09:37:43.000Z,4.78
2023-08-26T09:42:42.000Z,4.81
2023-08-26T09:47:42.000Z,4.94
2023-08-26T09:52:42.000Z,4.52
2023-08-26T09:57:43.000Z,4.26
2023-08-26T10:02:43.000Z,4.49
2023-08-26T10:07:42.000Z,4.63
2023-08-26T10:12:42.000Z,4.67
2023-08-26T10:17:42.000Z,4.49
2023-08-26T10:22:42.000Z,4.64
2023-08-26T10:27:43.000Z,4.4
2023-08-26T10:32:42.000Z,4.48
2023-08-26T10:37:42.000Z,4.66
2023-08-26T10:42:43.000Z,4.92
2023-08-26T10:47:42.000Z,4.88
2023-08-26T10:52:42.000Z,4.86
2023-08-26T10:57:42.000Z,4.82
2023-08-26T11:02:42.000Z,4.82
2023-08-26T11:07:42.000Z,4.72
2023-08-26T11:12:42.000Z,4.69
2023-08-26T11:17:42.000Z,4.53
2023-08-26T11:22:42.000Z,4.88
2023-08-26T11:27:42.000Z,5
2023-08-26T11:37:42.000Z,4.79
2023-08-26T11:42:42.000Z,4.06
2023-08-26T11:47:42.000Z,3.63
2023-08-26T11:52:42.000Z,3.61
2023-08-26T11:57:42.000Z,3.64
2023-08-26T12:02:43.000Z,3.56
2023-08-26T12:07:42.000Z,3.72
2023-08-26T12:12:43.000Z,4.1
2023-08-26T12:17:42.000Z,4.35
2023-08-26T12:22:42.000Z,4.58
2023-08-26T12:27:42.000Z,4.47
2023-08-26T12:32:42.000Z,4.43
2023-08-26T12:37:42.000Z,4.58
2023-08-26T12:42:42.000Z,4.06
2023-08-26T12:47:42.000Z,3.92
2023-08-26T12:52:42.000Z,3.94
2023-08-26T12:57:43.000Z,3.95
2023-08-26T13:02:42.000Z,4.09
2023-08-26T13:07:42.000Z,4.11
2023-08-26T13:12:43.000Z,3.88
2023-08-26T13:17:42.000Z,3.67
2023-08-26T13:22:42.000Z,3.86
2023-08-26T13:27:43.000Z,4.09
2023-08-26T13:32:42.000Z,4.44
2023-08-26T13:37:43.000Z,4.61
2023-08-26T13:42:43.000Z,4.8
2023-08-26T13:47:42.000Z,4.84
2023-08-26T13:52:43.000Z,4.87
2023-08-26T13:57:42.000Z,4.68
2023-08-26T14:02:42.000Z,4.86
2023-08-26T14:07:43.000Z,5.18
2023-08-26T14:12:42.000Z,5.35
2023-08-26T14:17:42.000Z,5.03
2023-08-26T14:22:42.000Z,6.65
2023-08-26T14:27:42.000Z,8.72
2023-08-26T14:32:42.000Z,5.42
2023-08-26T14:37:43.000Z,5.29
2023-08-26T14:42:43.000Z,5.31
2023-08-26T14:47:42.000Z,5.53
2023-08-26T14:52:42.000Z,5.4
2023-08-26T14:57:43.000Z,5.54
2023-08-26T15:02:42.000Z,5.61
2023-08-26T15:07:42.000Z,5.5
2023-08-26T15:12:42.000Z,5.46
2023-08-26T15:17:42.000Z,5.82
2023-08-26T15:22:43.000Z,5.78
2023-08-26T15:27:42.000Z,6.14
2023-08-26T15:32:43.000Z,5.92
2023-08-26T15:37:42.000Z,5.82
2023-08-26T15:42:43.000Z,6.43
2023-08-26T15:47:42.000Z,6.11
2023-08-26T15:52:42.000Z,6.38
2023-08-26T15:57:42.000Z,6.45
2023-08-26T16:02:42.000Z,6.72
2023-08-26T16:07:42.000Z,7.71
2023-08-26T16:12:43.000Z,7.89
2023-08-26T16:17:42.000Z,8.27
2023-08-26T16:22:42.000Z,8.42
2023-08-26T16:27:42.000Z,8.79
2023-08-26T16:32:42.000Z,8.93
2023-08-26T16:37:42.000Z,9.05
2023-08-26T16:42:43.000Z,9.41
2023-08-26T16:47:42.000Z,9.66
2023-08-26T16:52:43.000Z,9.85
2023-08-26T16:57:42.000Z,10.03
2023-08-26T17:02:43.000Z,10.12
2023-08-26T17:07:42.000Z,10.08
2023-08-26T17:17:42.000Z,11.45
2023-08-26T17:22:42.000Z,12.06
2023-08-26T17:27:42.000Z,12
2023-08-26T17:32:42.000Z,14.54
2023-08-26T17:37:43.000Z,13.39
2023-08-26T17:42:43.000Z,13.09
2023-08-26T17:47:43.000Z,12.94
2023-08-26T17:52:42.000Z,15.13
2023-08-26T17:57:42.000Z,13
2023-08-26T18:02:43.000Z,13.22
2023-08-26T18:07:43.000Z,13.11
2023-08-26T18:12:42.000Z,15.13
2023-08-26T18:17:42.000Z,13.35
2023-08-26T18:22:42.000Z,20.82
2023-08-26T18:27:43.000Z,29.95
2023-08-26T18:32:42.000Z,26.89
2023-08-26T18:37:43.000Z,21.78
2023-08-26T18:42:42.000Z,21.78
2023-08-26T18:47:42.000Z,20.22
2023-08-26T18:52:42.000Z,20.23
2023-08-26T18:57:42.000Z,20.75
2023-08-26T19:02:42.000Z,20.86
2023-08-26T19:07:42.000Z,21.79
2023-08-26T19:12:42.000Z,22.23
2023-08-26T19:17:42.000Z,22.5
2023-08-26T19:22:43.000Z,22.54
2023-08-26T19:27:42.000Z,23.99
2023-08-26T19:32:42.000Z,23.48
2023-08-26T19:37:42.000Z,23.76
2023-08-26T19:42:43.000Z,22.94
2023-08-26T19:47:43.000Z,22.57
2023-08-26T19:52:43.000Z,22.16
2023-08-26T19:57:42.000Z,22.62
2023-08-26T20:02:42.000Z,21.68
2023-08-26T20:07:43.000Z,22.41
2023-08-26T20:12:42.000Z,22.12
2023-08-26T20:17:42.000Z,21.11
2023-08-26T20:27:42.000Z,21.52
2023-08-26T20:32:43.000Z,21.41
2023-08-26T20:37:43.000Z,21.27
2023-08-26T20:42:43.000Z,21.75
2023-08-26T20:47:42.000Z,21.05
2023-08-26T20:52:42.000Z,20.91
2023-08-26T20:57:42.000Z,21.58
2023-08-26T21:02:43.000Z,21.43
2023-08-26T21:07:42.000Z,21.15
2023-08-26T21:12:42.000Z,21.31
2023-08-26T21:17:42.000Z,21.63
2023-08-26T21:22:42.000Z,21.22
2023-08-26T21:27:42.000Z,21.19
2023-08-26T21:32:42.000Z,20.94
2023-08-26T21:37:42.000Z,20.89
2023-08-26T21:42:42.000Z,21.11
2023-08-26T21:47:42.000Z,20.74
2023-08-26T21:52:43.000Z,21.61
2023-08-26T21:57:43.000Z,21.8
2023-08-26T22:02:42.000Z,21.84
2023-08-26T22:07:43.000Z,20.9
2023-08-26T22:12:43.000Z,19.82
2023-08-26T22:17:42.000Z,18.74
2023-08-26T22:22:42.000Z,18.61
2023-08-26T22:27:42.000Z,18.49
2023-08-26T22:32:42.000Z,19.6
2023-08-26T22:37:42.000Z,16.33
2023-08-26T22:42:42.000Z,15.56
2023-08-26T22:47:42.000Z,14.4
2023-08-26T22:52:43.000Z,13.49
2023-08-26T22:57:43.000Z,13.54
2023-08-26T23:02:43.000Z,13.53
2023-08-26T23:07:42.000Z,14.1
2023-08-26T23:12:42.000Z,14.54
2023-08-26T23:17:42.000Z,14.89
2023-08-26T23:22:43.000Z,14.47
2023-08-26T23:27:43.000Z,14.02
2023-08-26T23:32:42.000Z,13.19
2023-08-26T23:37:42.000Z,12.96
2023-08-26T23:42:42.000Z,12.99
2023-08-26T23:47:43.000Z,13.29
2023-08-26T23:52:42.000Z,12.93
2023-08-26T23:57:42.000Z,12.67
